Latest Weather Observations for Laverton

IDV60901

Issued at 8:41 am EST Friday 21 July 2017 (issued every 10 minutes, with the page automatically refreshed every 10 minutes)

About weather observations | Map of Melbourne area stations | Latest observations for Melbourne area | Other Formats
Station Details ID: 087031 Name: LAVERTON RAAF Lat: -37.86 Lon: 144.76 Height: 20.1 m
Data from the previous 72 hours. | See also: Recent months at Laverton
Date/Time
EST
Temp
°C
App
Temp
°C
Dew
Point
°C
Rel
Hum
%
Delta-T
°C
Wind Press
QNH
hPa
Press
MSL
hPa
Rain since
9am
mm
Dir  Spd
km/h
Gust
km/h
Spd
kts
Gust
kts
21/08:30am 2.6 -0.3 2.5 99 0.0 NNW 7 9 4 5 1024.6 1024.6 2.2
21/08:00am 1.3 -1.6 1.2 99 0.0 NNW 6 7 3 4 1024.4 1024.4 2.2
21/07:30am 0.4 -2.9 0.3 99 0.0 NW 7 9 4 5 1024.1 1024.1 2.2
21/07:00am 0.8 -2.4 0.7 99 0.0 NW 7 7 4 4 1023.8 1023.8 2.2
21/06:30am 1.0 -2.2 0.9 99 0.0 NW 7 9 4 5 1023.4 1023.4 2.2
21/06:00am 1.4 -2.1 1.3 99 0.0 NNW 9 9 5 5 1023.0 1023.0 2.2
21/05:30am 1.8 0.1 1.7 99 0.0 CALM 0 0 0 0 1022.7 1022.7 2.2
21/05:00am 2.1 -1.3 1.8 98 0.1 NNW 9 11 5 6 1022.4 1022.4 2.2
21/04:30am 2.1 -1.7 1.7 97 0.2 NNW 11 15 6 8 1022.1 1022.1 2.2
21/04:00am 2.8 -0.9 2.2 96 0.2 NW 11 13 6 7 1022.3 1022.3 2.2
21/03:30am 3.7 -0.3 3.0 95 0.3 NW 13 17 7 9 1022.2 1022.2 2.2
21/03:00am 4.2 1.1 3.5 95 0.3 WNW 9 11 5 6 1022.1 1022.1 2.2
21/02:30am 5.3 2.6 3.6 89 0.7 W 7 9 4 5 1022.1 1022.1 2.2
21/02:00am 5.8 2.8 4.3 90 0.6 WNW 9 9 5 5 1022.3 1022.3 2.2
21/01:30am 6.0 3.3 3.8 86 0.9 W 7 11 4 6 1022.4 1022.4 2.2
21/01:00am 5.7 2.7 4.2 90 0.6 W 9 11 5 6 1022.6 1022.6 2.2
21/12:30am 4.1 1.0 3.7 97 0.2 W 9 13 5 7 1022.8 1022.8 2.2
21/12:00am 3.7 0.1 2.8 94 0.4 WNW 11 13 6 7 1022.7 1022.7 2.2
 
Date/Time
EST
Temp
°C
App
Temp
°C
Dew
Point
°C
Rel
Hum
%
Delta-T
°C
Wind Press
QNH
hPa
Press
MSL
hPa
Rain since
9am
mm
Dir  Spd
km/h
Gust
km/h
Spd
kts
Gust
kts
20/11:30pm 4.0 0.3 2.5 90 0.6 WNW 11 13 6 7 1022.7 1022.7 2.2
20/11:00pm 5.6 2.1 3.3 85 1.0 W 11 13 6 7 1022.7 1022.7 2.2
20/10:30pm 6.0 2.5 3.7 85 1.0 W 11 15 6 8 1022.7 1022.7 2.2
20/10:00pm 6.2 1.9 3.5 83 1.1 W 15 19 8 10 1022.6 1022.6 2.2
20/09:30pm 6.0 1.7 3.5 84 1.0 WNW 15 20 8 11 1022.5 1022.5 2.2
20/09:00pm 6.0 1.7 3.5 84 1.0 WNW 15 19 8 10 1022.2 1022.2 2.2
20/08:30pm 6.3 2.0 3.5 82 1.2 W 15 20 8 11 1022.0 1022.0 2.2
20/08:00pm 6.2 2.3 3.4 82 1.2 WNW 13 17 7 9 1021.8 1021.8 2.2
20/07:30pm 6.5 3.0 3.3 80 1.3 W 11 15 6 8 1021.4 1021.4 2.2
20/07:00pm 7.1 3.6 3.7 79 1.4 W 11 15 6 8 1021.3 1021.3 2.2
20/06:30pm 7.5 4.1 4.1 79 1.5 W 11 15 6 8 1021.0 1021.0 2.2
20/06:00pm 7.7 4.4 4.3 79 1.5 W 11 17 6 9 1020.6 1020.6 2.2
20/05:30pm 8.4 4.7 4.2 75 1.8 WSW 13 19 7 10 1020.6 1020.6 2.2
20/05:00pm 9.1 4.7 4.5 73 2.0 SW 17 24 9 13 1020.4 1020.4 2.2
20/04:30pm 9.3 4.3 4.5 72 2.1 SW 20 28 11 15 1020.3 1020.3 2.2
20/04:00pm 9.3 4.2 4.3 71 2.2 SW 20 28 11 15 1020.0 1020.0 2.2
20/03:30pm 9.3 2.5 5.1 75 1.9 SW 30 43 16 23 1019.8 1019.8 2.2
20/03:00pm 9.6 4.3 5.2 74 2.0 SW 22 33 12 18 1019.5 1019.5 2.2
20/02:30pm 9.2 4.0 5.6 78 1.6 SW 22 33 12 18 1019.4 1019.4 2.2
20/02:07pm 8.3 3.1 5.6 83 1.2 SW 22 37 12 20 1019.2 1019.2 2.2
20/02:00pm 7.8 1.9 5.9 88 0.9 SSW 26 37 14 20 1019.3 1019.3 2.2
20/01:47pm 7.5 0.5 5.8 89 0.8 SSW 32 56 17 30 1019.6 1019.6 2.0
20/01:45pm 8.1 1.8 5.7 85 1.1 SSW 28 52 15 28 1019.4 1019.4 1.8
20/01:35pm 8.7 2.5 6.3 85 1.1 SSW 28 43 15 23 1019.0 1019.0 1.8
20/01:30pm 8.6 2.5 6.7 88 0.9 SSW 28 43 15 23 1019.0 1019.0 1.6
20/01:15pm 9.0 2.9 6.4 84 1.2 SW 28 46 15 25 1019.1 1019.1 1.2
20/01:14pm 9.2 3.1 6.6 84 1.2 SW 28 46 15 25 1019.1 1019.1 1.0
20/01:00pm 10.7 6.1 6.5 75 2.0 SW 20 30 11 16 1018.6 1018.6 0.8
20/12:30pm 9.0 2.7 5.9 81 1.4 WSW 28 43 15 23 1018.8 1018.8 0.8
20/12:00pm 9.8 4.1 6.9 82 1.4 SW 26 35 14 19 1018.9 1018.9 0.8
20/11:57am 9.4 3.3 6.7 83 1.3 SW 28 43 15 23 1019.0 1019.0 0.8
20/11:44am 8.5 1.5 5.8 83 1.2 SSW 32 52 17 28 1019.2 1019.2 0.6
20/11:38am 8.2 2.4 6.2 87 0.9 SSW 26 41 14 22 1019.3 1019.3 0.6
20/11:30am 9.1 3.9 5.7 79 1.5 SSW 22 33 12 18 1019.0 1019.0 0.2
20/11:00am 10.9 5.7 5.7 70 2.4 SW 22 30 12 16 1018.9 1018.9 0.0
20/10:30am 10.3 4.3 5.1 70 2.4 WSW 26 37 14 20 1018.7 1018.7 0.0
20/10:00am 10.1 5.2 5.1 71 2.3 W 20 30 11 16 1018.3 1018.3 0.0
20/09:30am 9.5 5.2 5.1 74 2.0 W 17 24 9 13 1018.1 1018.1 0.0
20/09:00am 8.6 4.4 5.9 83 1.2 W 17 24 9 13 1017.7 1017.7 1.0
20/08:30am 8.2 4.2 6.7 90 0.7 W 17 26 9 14 1017.5 1017.5 -
20/08:00am 7.6 3.2 6.4 92 0.5 W 19 24 10 13 1017.3 1017.3 -
20/07:30am 8.0 2.6 6.3 89 0.8 W 24 32 13 17 1017.3 1017.3 -
20/07:06am 8.0 2.9 6.1 88 0.9 WSW 22 30 12 16 1017.2 1017.2 -
20/07:00am 8.1 3.0 6.1 87 0.9 W 22 32 12 17 1017.2 1017.2 -
20/06:30am 8.1 3.0 6.1 87 0.9 WSW 22 44 12 24 1017.0 1017.0 -
20/06:22am 8.7 3.8 5.3 79 1.5 WSW 20 28 11 15 1016.9 1016.9 -
20/06:00am 8.6 3.3 4.8 77 1.7 W 22 30 12 16 1016.5 1016.5 -
20/05:30am 5.6 1.9 4.2 91 0.6 NW 13 19 7 10 1016.4 1016.4 -
20/05:00am 6.6 2.2 4.6 87 0.9 NW 17 20 9 11 1016.4 1016.4 -
20/04:30am 6.7 2.3 4.7 87 0.9 NW 17 20 9 11 1016.3 1016.3 -
20/04:00am 7.8 2.8 4.4 79 1.5 WNW 20 30 11 16 1016.5 1016.5 -
20/03:30am 5.9 1.4 4.2 89 0.7 NW 17 20 9 11 1016.7 1016.7 -
20/03:00am 6.5 2.0 4.3 86 0.9 NW 17 20 9 11 1016.8 1016.8 0.0
20/02:30am 7.3 2.6 5.0 85 1.0 NW 19 24 10 13 1016.9 1016.9 -
20/02:00am 7.1 2.2 4.9 86 1.0 NW 20 28 11 15 1017.1 1017.1 -
20/01:30am 6.6 1.8 4.4 86 0.9 NW 19 22 10 12 1017.3 1017.3 -
20/01:00am 6.8 2.8 4.8 87 0.9 NW 15 20 8 11 1017.4 1017.4 -
20/12:30am 6.5 2.1 4.5 87 0.9 NW 17 20 9 11 1017.6 1017.6 -
20/12:00am 6.6 2.5 4.1 84 1.1 NW 15 17 8 9 1018.2 1018.2 -
 
Date/Time
EST
Temp
°C
App
Temp
°C
Dew
Point
°C
Rel
Hum
%
Delta-T
°C
Wind Press
QNH
hPa
Press
MSL
hPa
Rain since
9am
mm
Dir  Spd
km/h
Gust
km/h
Spd
kts
Gust
kts
19/11:30pm 7.5 2.7 4.6 82 1.3 WNW 19 22 10 12 1018.4 1018.4 -
19/11:00pm 7.4 3.0 4.7 83 1.2 WNW 17 24 9 13 1018.7 1018.7 -
19/10:30pm 7.1 2.6 4.4 83 1.2 WNW 17 20 9 11 1019.0 1019.0 -
19/10:00pm 7.7 2.9 4.7 81 1.3 W 19 24 10 13 1019.3 1019.3 -
19/09:30pm 7.6 2.6 4.7 82 1.3 W 20 26 11 14 1019.0 1019.0 -
19/09:00pm 7.7 3.3 4.8 82 1.3 W 17 22 9 12 1018.7 1018.7 0.2
19/08:30pm 8.3 4.0 5.1 80 1.4 W 17 20 9 11 1018.9 1018.9 -
19/08:00pm 9.2 4.4 5.4 77 1.7 WSW 20 28 11 15 1018.7 1018.7 -
19/07:30pm 9.6 5.3 5.4 75 1.9 W 17 22 9 12 1018.3 1018.3 -
19/07:00pm 10.1 5.9 5.7 74 2.0 WSW 17 24 9 13 1018.0 1018.0 -
19/06:30pm 10.1 5.9 5.9 75 1.9 WSW 17 22 9 12 1017.7 1017.7 -
19/06:00pm 10.3 6.1 5.7 73 2.1 WSW 17 24 9 13 1017.4 1017.4 -
19/05:30pm 10.4 5.8 6.5 77 1.8 WSW 20 28 11 15 1017.6 1017.6 -
19/05:00pm 10.0 5.6 7.4 84 1.2 SW 20 30 11 16 1017.3 1017.3 -
19/04:32pm 10.1 3.8 7.3 83 1.3 SW 30 48 16 26 1017.4 1017.4 -
19/04:30pm 10.2 3.5 7.3 82 1.4 SW 32 48 17 26 1017.4 1017.4 -
19/04:23pm 10.6 4.3 7.5 81 1.5 SW 30 48 16 26 1017.3 1017.3 -
19/04:00pm 11.6 4.8 7.1 74 2.2 SSW 32 44 17 24 1016.7 1016.7 -
19/03:30pm 10.9 5.3 8.7 86 1.1 SW 28 46 15 25 1016.3 1016.3 -
19/03:25pm 10.6 5.1 9.0 90 0.8 SSW 28 46 15 25 1016.2 1016.2 -
19/03:00pm 11.5 5.4 8.2 80 1.6 SSW 30 44 16 24 1015.7 1015.7 0.8
19/02:51pm 11.4 5.1 8.8 84 1.3 SSW 32 44 17 24 1015.5 1015.5 -
19/02:36pm 10.6 4.8 9.4 92 0.6 SSW 30 48 16 26 1015.4 1015.4 -
19/02:35pm 10.7 4.5 9.5 92 0.6 SSW 32 48 17 26 1015.4 1015.4 -
19/02:30pm 10.9 4.4 8.8 87 1.0 SW 33 48 18 26 1015.4 1015.4 -
19/02:00pm 11.5 4.7 9.1 85 1.2 SSW 35 54 19 29 1015.0 1015.0 -
19/01:30pm 11.7 5.3 9.4 86 1.2 SSW 33 52 18 28 1014.7 1014.7 -
19/01:24pm 11.5 5.2 9.8 89 0.9 SSW 33 52 18 28 1014.7 1014.7 -
19/01:12pm 11.1 3.4 10.2 94 0.5 SSW 41 52 22 28 1014.7 1014.7 -
19/01:00pm 12.4 6.5 11.0 91 0.7 SSW 33 46 18 25 1014.5 1014.5 -
19/12:30pm 10.5 4.6 10.3 99 0.1 SW 32 50 17 27 1014.4 1014.4 -
19/12:22pm 11.1 6.0 10.5 96 0.3 SW 28 50 15 27 1014.4 1014.4 -
19/12:07pm 11.3 5.0 9.6 89 0.9 SW 33 46 18 25 1014.3 1014.3 -
19/12:00pm 12.0 6.1 9.2 83 1.4 SW 30 43 16 23 1014.2 1014.2 -
19/11:30am 11.6 6.9 10.7 94 0.5 SW 26 41 14 22 1013.9 1013.9 0.8
19/11:03am 11.2 6.6 10.9 98 0.2 SW 26 41 14 22 1013.8 1013.8 0.8
19/11:00am 11.3 7.1 11.1 99 0.1 SW 24 35 13 19 1013.8 1013.8 0.8
19/10:47am 10.9 6.6 10.7 99 0.1 SW 24 32 13 17 1013.6 1013.6 0.8
19/10:30am 11.2 7.2 10.3 94 0.5 WSW 22 33 12 18 1013.6 1013.6 0.4
19/10:00am 10.7 6.3 10.5 99 0.1 WSW 24 35 13 19 1013.0 1013.0 0.4
19/09:30am 10.6 7.0 10.4 99 0.1 SW 20 28 11 15 1012.5 1012.5 0.2
19/09:00am 10.4 5.6 10.2 99 0.1 SW 26 39 14 21 1011.9 1011.9 4.2
19/08:39am 10.3 5.8 10.1 99 0.1 SW 24 33 13 18 1011.2 1011.3 3.4
19/08:30am 10.3 5.4 10.1 99 0.1 WSW 26 35 14 19 1010.9 1011.0 3.0
19/08:05am 10.1 5.6 10.0 99 0.1 WSW 24 33 13 18 1010.6 1010.7 2.8
19/08:00am 10.0 5.1 9.9 99 0.1 WSW 26 33 14 18 1010.5 1010.6 2.8
19/07:30am 10.2 5.3 9.9 98 0.2 WSW 26 39 14 21 1009.8 1009.9 2.0
19/07:00am 10.0 6.2 9.9 99 0.1 WSW 20 28 11 15 1009.3 1009.4 1.8
19/06:30am 10.0 6.8 9.9 99 0.1 WSW 17 24 9 13 1008.8 1008.9 1.2
19/06:00am 10.0 6.1 9.4 96 0.3 WSW 20 30 11 16 1008.3 1008.4 0.4
19/05:30am 10.0 6.0 9.2 95 0.4 WSW 20 28 11 15 1007.9 1008.0 0.4
19/05:00am 9.9 5.5 8.8 93 0.5 W 22 30 12 16 1007.6 1007.7 0.4
19/04:30am 9.6 6.0 8.4 92 0.6 W 17 24 9 13 1007.3 1007.4 0.4
19/04:00am 9.7 5.6 8.0 89 0.8 W 19 28 10 15 1007.1 1007.2 0.4
19/03:30am 9.4 5.3 7.7 89 0.8 W 19 24 10 13 1006.9 1007.0 0.4
19/03:00am 9.3 5.6 8.1 92 0.6 W 17 24 9 13 1006.9 1007.0 0.4
19/02:30am 8.0 5.6 6.8 92 0.6 NW 9 13 5 7 1006.8 1006.9 0.4
19/02:00am 7.9 5.1 6.8 93 0.5 NW 11 13 6 7 1006.5 1006.6 0.4
19/01:30am 7.0 4.0 5.8 92 0.5 NW 11 13 6 7 1006.4 1006.5 0.4
19/01:00am 7.1 4.0 5.4 89 0.8 NNW 11 15 6 8 1006.3 1006.4 0.4
19/12:30am 7.7 4.3 5.7 87 0.9 NNW 13 15 7 8 1006.3 1006.4 0.4
19/12:00am 7.3 4.1 5.3 87 0.9 NNW 11 13 6 7 1006.4 1006.5 0.4
 
Date/Time
EST
Temp
°C
App
Temp
°C
Dew
Point
°C
Rel
Hum
%
Delta-T
°C
Wind Press
QNH
hPa
Press
MSL
hPa
Rain since
9am
mm
Dir  Spd
km/h
Gust
km/h
Spd
kts
Gust
kts
18/11:30pm 7.0 3.8 5.0 87 0.9 NNW 11 15 6 8 1006.6 1006.7 0.4
18/11:00pm 6.5 3.6 4.5 87 0.9 NNW 9 11 5 6 1006.7 1006.8 0.4
18/10:30pm 6.0 3.0 4.2 88 0.8 NNW 9 13 5 7 1006.8 1006.9 0.4
18/10:00pm 6.6 3.3 4.8 88 0.8 N 11 15 6 8 1006.7 1006.8 0.4
18/09:30pm 6.7 3.4 4.7 87 0.9 N 11 15 6 8 1006.8 1006.9 0.4
18/09:00pm 7.0 3.7 4.8 86 1.0 NNW 11 13 6 7 1006.8 1006.9 0.4
18/08:30pm 7.1 3.9 4.9 86 1.0 NNW 11 15 6 8 1006.8 1006.9 0.4
18/08:00pm 7.4 3.8 5.2 86 1.0 NW 13 17 7 9 1006.6 1006.7 0.4
18/07:30pm 8.4 5.2 5.2 80 1.4 N 11 15 6 8 1006.3 1006.4 0.4
18/07:00pm 9.2 6.1 5.6 78 1.6 N 11 17 6 9 1006.2 1006.3 0.4
18/06:30pm 9.2 6.0 5.2 76 1.8 N 11 17 6 9 1006.2 1006.3 0.4
18/06:00pm 9.9 6.7 5.3 73 2.1 NNW 11 17 6 9 1006.1 1006.2 0.4
18/05:30pm 10.0 6.5 5.4 73 2.1 NW 13 17 7 9 1006.0 1006.1 0.4
18/05:00pm 11.3 7.8 5.6 68 2.6 NW 13 17 7 9 1005.7 1005.8 0.4
18/04:30pm 12.8 7.7 5.9 63 3.3 NW 22 32 12 17 1005.6 1005.7 0.4
18/04:00pm 13.2 6.9 5.6 60 3.6 NW 28 35 15 19 1005.5 1005.6 0.4
18/03:30pm 13.4 7.9 6.0 61 3.5 WNW 24 37 13 20 1005.5 1005.6 0.4
18/03:00pm 13.2 7.2 7.0 66 3.0 NW 28 39 15 21 1005.3 1005.4 0.4
18/02:56pm 13.4 9.0 7.6 68 2.8 NW 20 35 11 19 1005.3 1005.4 0.4
18/02:41pm 11.4 5.5 7.7 78 1.8 WNW 28 44 15 24 1005.4 1005.5 0.4
18/02:30pm 13.7 7.7 5.3 57 3.9 NW 26 39 14 21 1005.2 1005.3 0.0
18/02:00pm 13.9 7.1 5.3 56 4.0 NW 30 39 16 21 1005.3 1005.4 0.0
18/01:30pm 13.8 7.4 5.4 57 3.9 NW 28 39 15 21 1005.4 1005.5 0.0
18/01:00pm 12.9 6.5 5.3 60 3.6 NW 28 35 15 19 1005.5 1005.6 0.0
18/12:30pm 13.1 6.5 6.0 62 3.4 NW 30 39 16 21 1005.9 1006.0 0.0
18/12:00pm 12.7 7.2 5.8 63 3.3 NW 24 33 13 18 1006.5 1006.6 0.0
18/11:30am 13.5 7.5 5.4 58 3.8 NNW 26 35 14 19 1006.7 1006.8 0.0
18/11:00am 12.7 7.2 5.8 63 3.3 NNW 24 33 13 18 1006.9 1007.0 0.0
18/10:30am 13.3 8.0 6.6 64 3.2 NW 24 37 13 20 1007.0 1007.1 0.0
18/10:00am 11.8 7.8 6.5 70 2.5 N 17 24 9 13 1007.1 1007.2 0.0
18/09:30am 11.9 8.4 7.0 72 2.3 N 15 20 8 11 1007.1 1007.2 0.0
18/09:00am 10.4 6.7 6.4 76 1.9 N 15 20 8 11 1007.2 1007.3 0.4

Latest Capital City Observations: Canberra | Sydney | Melbourne | Brisbane | Adelaide | Perth | Hobart | Darwin

Other Formats:

Comma delimited format used in spreadsheet applications
http://www.bom.gov.au/fwo/IDV60901/IDV60901.94865.axf

JavaScript Object Notation format (JSON) in row-major order
http://www.bom.gov.au/fwo/IDV60901/IDV60901.94865.json